Huvudsida
METAR-TAF:

METAR-TAF

Flygplatser :

Ajaccio, Frankrike

latitud: 41-55N, longitud: 008-48E, höjd: 6 m

Aktuellt väderrapport

Denna rapport gjordes för 27 minuter sedan, klockan 14:30 UTC
Vind 10 kt från syd
Temperatur 18°C
Fuktighet 68%
Tryck 1021 hPa
Sikt 10 km eller mer
Inga moln under 1 500 m eller inga cumulonimbus

METAR: LFKJ 091430Z AUTO 19010KT CAVOK 18/12 Q1021 NOSIG

Tid: 16:57 (14:57 UTC)

Väderprognos

Denna rapport gjordes för 57 minuter sedan, klockan 14:00 UTC
Prognos gäller från 09 kl. 15 UTC till 10 kl. 15 UTC
Vind 10 kt från syd/sydväst
Sikt 10 km eller mer
Inga moln under 1 500 m eller inga cumulonimbus
Blir
från 09 kl. 16 UTC till 09 kl. 18 UTC
Vind 2 kt varierande vindriktning

TAF: LFKJ 091400Z 0915/1015 21010KT CAVOK BECMG 0916/0918 VRB02KT

Aktuella väderrapporter och prognoser från 4000 flygplatser (METAR- och TAF-rapporter).

De tillgängliga stationerna syns som gula och röda prickar på kartan.

För musen över prickarna för att se namnen på stationerna.

Klicka sedan för att få väderrapporter och prognoser.

För att ändra kartan: Klicka på de gröna knapparna med ett svart kors på för att zooma in; den gröna knappen med ett streck på för att zooma ut; eller på de gröna pilarna för angränsande kartor.


METAR-TAF: